Time;durP1;ratioP1;P1;durP2;ratioP2;P2;SDS_P1;SDS_P2;PMS_P1;PMS_P2;Temp;Humidity;BMP_temperature;BMP_pressure;BME280_temperature;BME280_humidity;BME280_pressure;Samples;Min_cycle;Max_cycle;Signal;HPM_P1;HPM_P2
2022/12/09 00:01:13;;;;;;;10.18;9.68;;;;;;;;;;5052963;28;20070;-69
2022/12/09 00:03:38;;;;;;;9.75;9.25;;;;;;;;;;5066383;28;20027;-70
2022/12/09 00:06:05;;;;;;;10.38;9.88;;;;;;;;;;5060858;28;20012;-69
2022/12/09 00:08:30;;;;;;;9.25;8.85;;;;;;;;;;5053262;28;20021;-70
2022/12/09 00:10:55;;;;;;;9.48;9.05;;;;;;;;;;5062657;28;20021;-69
2022/12/09 00:13:21;;;;;;;9.95;9.45;;;;;;;;;;5065494;28;20411;-68
2022/12/09 00:15:46;;;;;;;10.55;10.05;;;;;;;;;;5049955;28;20111;-68
2022/12/09 00:18:11;;;;;;;9.75;9.27;;;;;;;;;;5053812;28;20366;-69
2022/12/09 00:20:37;;;;;;;10.10;9.60;;;;;;;;;;5064601;28;20491;-69
2022/12/09 00:23:02;;;;;;;10.00;9.50;;;;;;;;;;5060623;28;20024;-69
2022/12/09 00:25:27;;;;;;;9.40;9.00;;;;;;;;;;5050747;28;20032;-69
2022/12/09 00:27:53;;;;;;;10.20;9.70;;;;;;;;;;5061854;28;20020;-69
2022/12/09 00:30:18;;;;;;;10.23;9.73;;;;;;;;;;5056077;28;20035;-69
2022/12/09 00:32:43;;;;;;;10.27;9.77;;;;;;;;;;5063371;28;20147;-69
2022/12/09 00:35:08;;;;;;;10.43;9.93;;;;;;;;;;5058701;28;20499;-69
2022/12/09 00:37:34;;;;;;;10.20;9.70;;;;;;;;;;5055743;28;20070;-70
2022/12/09 00:39:59;;;;;;;10.48;9.98;;;;;;;;;;5053556;28;20017;-68
2022/12/09 00:42:24;;;;;;;10.48;9.98;;;;;;;;;;5056781;28;20021;-69
2022/12/09 00:44:50;;;;;;;10.50;10.00;;;;;;;;;;5058420;28;20021;-69
2022/12/09 00:47:15;;;;;;;10.15;9.65;;;;;;;;;;5057682;28;20020;-71
2022/12/09 00:49:40;;;;;;;9.43;9.02;;;;;;;;;;5056394;28;20039;-70
2022/12/09 00:52:06;;;;;;;9.85;9.35;;;;;;;;;;5053656;28;20025;-70
2022/12/09 00:54:31;;;;;;;10.32;9.82;;;;;;;;;;5057513;28;20033;-70
2022/12/09 00:56:56;;;;;;;10.75;10.18;;;;;;;;;;5055038;28;20108;-70
2022/12/09 00:59:22;;;;;;;10.00;9.50;;;;;;;;;;5063221;28;20665;-69
2022/12/09 01:01:47;;;;;;;10.10;9.60;;;;;;;;;;5052255;28;20376;-71
2022/12/09 01:04:12;;;;;;;10.52;10.02;;;;;;;;;;5041160;28;20017;-70
2022/12/09 01:06:38;;;;;;;10.38;9.88;;;;;;;;;;5051264;28;20632;-68
2022/12/09 01:09:03;;;;;;;10.18;9.68;;;;;;;;;;5052066;28;20020;-69
2022/12/09 01:11:29;;;;;;;10.13;9.63;;;;;;;;;;5061692;28;20025;-69
2022/12/09 01:13:56;;;;;;;11.13;10.52;;;;;;;;;;5059489;28;20036;-70
2022/12/09 01:16:23;;;;;;;9.70;9.30;;;;;;;;;;5061798;28;20032;-69
2022/12/09 01:18:49;;;;;;;10.07;9.57;;;;;;;;;;5061835;28;20017;-68
2022/12/09 01:21:15;;;;;;;9.90;9.40;;;;;;;;;;5059320;28;20032;-69
2022/12/09 01:23:41;;;;;;;9.90;9.40;;;;;;;;;;5067477;28;20021;-68
2022/12/09 01:26:06;;;;;;;10.02;9.52;;;;;;;;;;5059039;28;20017;-69
2022/12/09 01:28:36;;;;;;;10.57;10.07;;;;;;;;;;5058572;28;20033;-69
2022/12/09 01:31:06;;;;;;;10.10;9.60;;;;;;;;;;5067239;28;20499;-70
2022/12/09 01:33:31;;;;;;;9.73;9.30;;;;;;;;;;5059672;28;20032;-69
2022/12/09 01:35:56;;;;;;;10.13;9.63;;;;;;;;;;5063536;28;20089;-70
2022/12/09 01:38:21;;;;;;;10.10;9.60;;;;;;;;;;5058783;28;20021;-68
2022/12/09 01:40:47;;;;;;;10.35;9.85;;;;;;;;;;5064166;28;20044;-68
2022/12/09 01:43:18;;;;;;;10.25;9.75;;;;;;;;;;5059416;28;20021;-69
2022/12/09 01:45:44;;;;;;;9.90;9.40;;;;;;;;;;5058048;28;20040;-69
2022/12/09 01:48:12;;;;;;;9.90;9.40;;;;;;;;;;5063244;28;20500;-70
2022/12/09 01:50:40;;;;;;;10.32;9.82;;;;;;;;;;5063551;28;20040;-69
2022/12/09 01:53:06;;;;;;;10.27;9.77;;;;;;;;;;5057972;28;20020;-70
2022/12/09 01:55:31;;;;;;;10.07;9.57;;;;;;;;;;5062010;28;20059;-69
2022/12/09 01:57:57;;;;;;;10.25;9.75;;;;;;;;;;5062476;28;20074;-70
2022/12/09 02:00:22;;;;;;;9.75;9.35;;;;;;;;;;5056704;28;20115;-68
2022/12/09 02:02:48;;;;;;;10.25;9.75;;;;;;;;;;5063782;28;20477;-69
2022/12/09 02:05:13;;;;;;;10.02;9.52;;;;;;;;;;5065339;28;20090;-68
2022/12/09 02:07:39;;;;;;;10.07;9.57;;;;;;;;;;5057588;28;20023;-69
2022/12/09 02:10:06;;;;;;;10.18;9.68;;;;;;;;;;5059619;28;20024;-70
2022/12/09 02:12:35;;;;;;;9.88;9.38;;;;;;;;;;5057580;28;20044;-70
2022/12/09 02:15:05;;;;;;;10.52;10.02;;;;;;;;;;5065751;28;20024;-69
2022/12/09 02:17:43;;;;;;;10.20;9.70;;;;;;;;;;5066523;28;20027;-69
2022/12/09 02:20:14;;;;;;;10.05;9.55;;;;;;;;;;5063537;28;20040;-69
2022/12/09 02:22:44;;;;;;;10.27;9.77;;;;;;;;;;5062937;28;20491;-68
2022/12/09 02:25:29;;;;;;;11.07;10.48;;;;;;;;;;5061589;28;20476;-69
2022/12/09 02:27:55;;;;;;;9.77;9.27;;;;;;;;;;5055612;28;20548;-69
2022/12/09 02:30:22;;;;;;;9.48;9.07;;;;;;;;;;5059981;28;20099;-70
2022/12/09 02:33:06;;;;;;;9.50;9.10;;;;;;;;;;5060130;28;20378;-69
2022/12/09 02:35:37;;;;;;;9.75;9.25;;;;;;;;;;5061406;28;20487;-69
2022/12/09 02:38:09;;;;;;;9.52;9.13;;;;;;;;;;5061046;28;20032;-68
2022/12/09 02:40:39;;;;;;;9.40;9.00;;;;;;;;;;5089177;28;20024;-71
2022/12/09 02:43:05;;;;;;;9.60;9.20;;;;;;;;;;5061190;28;20043;-70
2022/12/09 02:45:31;;;;;;;9.90;9.40;;;;;;;;;;5064062;28;20499;-69
2022/12/09 02:47:57;;;;;;;9.73;9.23;;;;;;;;;;5059957;28;20029;-69
2022/12/09 02:50:26;;;;;;;10.00;9.50;;;;;;;;;;5059693;28;20024;-68
2022/12/09 02:52:52;;;;;;;10.18;9.68;;;;;;;;;;5064252;28;20446;-71
2022/12/09 02:55:19;;;;;;;9.93;9.43;;;;;;;;;;5058419;28;20024;-69
2022/12/09 02:57:46;;;;;;;10.38;9.88;;;;;;;;;;5057872;28;20032;-70
2022/12/09 03:00:12;;;;;;;9.82;9.32;;;;;;;;;;5066664;28;20020;-71
2022/12/09 03:02:39;;;;;;;9.95;9.45;;;;;;;;;;5061085;28;20448;-70
2022/12/09 03:05:20;;;;;;;10.00;9.50;;;;;;;;;;5057504;28;20476;-69
2022/12/09 03:08:00;;;;;;;10.20;9.70;;;;;;;;;;5059903;28;20028;-69
2022/12/09 03:10:25;;;;;;;10.18;9.68;;;;;;;;;;5052685;28;20124;-68
2022/12/09 03:12:55;;;;;;;10.13;9.63;;;;;;;;;;5053210;28;20075;-68
2022/12/09 03:15:24;;;;;;;10.27;9.77;;;;;;;;;;5052988;28;20495;-69
2022/12/09 03:17:50;;;;;;;10.00;9.50;;;;;;;;;;5055385;28;20103;-68
2022/12/09 03:20:18;;;;;;;10.13;9.63;;;;;;;;;;5055597;28;20024;-70
2022/12/09 03:22:44;;;;;;;10.45;9.95;;;;;;;;;;5061497;28;20021;-69
2022/12/09 03:25:26;;;;;;;10.13;9.63;;;;;;;;;;5060195;28;20534;-71
2022/12/09 03:27:51;;;;;;;10.13;9.63;;;;;;;;;;5059843;28;20075;-70
2022/12/09 03:30:17;;;;;;;10.13;9.63;;;;;;;;;;5057580;28;20024;-68
2022/12/09 03:32:43;;;;;;;9.93;9.43;;;;;;;;;;5051579;28;20024;-68
2022/12/09 03:35:16;;;;;;;9.98;9.48;;;;;;;;;;5055285;28;20044;-71
2022/12/09 03:37:43;;;;;;;10.07;9.57;;;;;;;;;;5058002;28;20025;-72
2022/12/09 03:40:10;;;;;;;10.15;9.65;;;;;;;;;;5063111;28;20017;-70
2022/12/09 03:42:38;;;;;;;10.02;9.52;;;;;;;;;;5060846;28;20021;-69
2022/12/09 03:45:08;;;;;;;9.90;9.40;;;;;;;;;;5061112;28;20044;-70
2022/12/09 03:47:34;;;;;;;9.60;9.20;;;;;;;;;;5060080;28;20056;-70
2022/12/09 03:49:59;;;;;;;9.90;9.40;;;;;;;;;;5064578;28;20087;-70
2022/12/09 03:52:25;;;;;;;9.90;9.40;;;;;;;;;;5056739;28;20032;-69
2022/12/09 03:54:54;;;;;;;9.90;9.40;;;;;;;;;;5053969;28;20101;-70
2022/12/09 03:57:20;;;;;;;10.20;9.70;;;;;;;;;;5066356;28;20024;-69
2022/12/09 03:59:54;;;;;;;10.20;9.70;;;;;;;;;;5056461;28;20027;-70
2022/12/09 04:02:20;;;;;;;10.85;10.30;;;;;;;;;;5053763;28;20013;-69
2022/12/09 04:04:45;;;;;;;10.30;9.80;;;;;;;;;;5058045;28;20036;-71
2022/12/09 04:07:10;;;;;;;9.90;9.40;;;;;;;;;;5056436;28;20044;-69
2022/12/09 04:09:36;;;;;;;10.13;9.63;;;;;;;;;;5063632;28;20048;-70
2022/12/09 04:12:01;;;;;;;10.00;9.50;;;;;;;;;;5061606;28;20561;-70
2022/12/09 04:14:26;;;;;;;9.75;9.25;;;;;;;;;;5061244;28;20016;-69
2022/12/09 04:16:52;;;;;;;9.65;9.20;;;;;;;;;;5056787;28;20071;-68
2022/12/09 04:19:17;;;;;;;9.70;9.25;;;;;;;;;;5059294;28;20028;-69
2022/12/09 04:21:42;;;;;;;10.00;9.50;;;;;;;;;;5057094;28;20482;-69
2022/12/09 04:24:08;;;;;;;10.05;9.55;;;;;;;;;;5056700;28;20080;-70
2022/12/09 04:26:33;;;;;;;10.00;9.50;;;;;;;;;;5060790;28;20439;-68
2022/12/09 04:28:59;;;;;;;9.77;9.30;;;;;;;;;;5057250;28;20017;-70
2022/12/09 04:31:24;;;;;;;10.00;9.50;;;;;;;;;;5059567;28;20033;-69
2022/12/09 04:33:50;;;;;;;10.27;9.77;;;;;;;;;;5059702;28;20091;-69
2022/12/09 04:36:16;;;;;;;9.98;9.48;;;;;;;;;;5063577;28;20021;-68
2022/12/09 04:38:42;;;;;;;10.65;10.15;;;;;;;;;;5054880;28;20025;-68
2022/12/09 04:41:07;;;;;;;9.90;9.40;;;;;;;;;;5058061;28;20044;-70
2022/12/09 04:43:32;;;;;;;10.02;9.52;;;;;;;;;;5061023;28;20047;-71
2022/12/09 04:46:02;;;;;;;11.10;10.50;;;;;;;;;;5063292;28;20048;-70
2022/12/09 04:48:27;;;;;;;10.02;9.52;;;;;;;;;;5056753;28;20036;-70
2022/12/09 04:50:53;;;;;;;10.40;9.90;;;;;;;;;;5061065;28;20028;-69
2022/12/09 04:53:18;;;;;;;10.77;10.20;;;;;;;;;;5064388;28;20135;-70
2022/12/09 04:55:43;;;;;;;10.20;9.70;;;;;;;;;;5057724;28;20018;-70
2022/12/09 04:58:09;;;;;;;9.60;9.20;;;;;;;;;;5061193;28;20032;-69
2022/12/09 05:00:34;;;;;;;10.18;9.68;;;;;;;;;;5059361;28;20400;-71
2022/12/09 05:02:59;;;;;;;10.00;9.50;;;;;;;;;;5059271;28;20028;-69
2022/12/09 05:05:25;;;;;;;10.23;9.73;;;;;;;;;;5050017;28;20025;-70
2022/12/09 05:07:50;;;;;;;9.77;9.27;;;;;;;;;;5059704;28;20037;-70
2022/12/09 05:10:15;;;;;;;10.23;9.73;;;;;;;;;;5063969;28;20025;-70
2022/12/09 05:12:40;;;;;;;9.77;9.32;;;;;;;;;;5064583;28;20127;-69
2022/12/09 05:15:06;;;;;;;10.13;9.63;;;;;;;;;;5061967;28;20035;-71
2022/12/09 05:17:31;;;;;;;10.27;9.77;;;;;;;;;;5066872;28;20365;-69
2022/12/09 05:19:57;;;;;;;9.98;9.48;;;;;;;;;;5065794;28;20060;-70
2022/12/09 05:22:22;;;;;;;10.35;9.85;;;;;;;;;;5049240;28;20017;-68
2022/12/09 05:24:48;;;;;;;10.30;9.80;;;;;;;;;;5057593;28;20120;-68
2022/12/09 05:27:13;;;;;;;9.85;9.35;;;;;;;;;;5052490;28;20496;-68
2022/12/09 05:29:39;;;;;;;10.00;9.50;;;;;;;;;;5062725;28;20028;-69
2022/12/09 05:32:04;;;;;;;10.18;9.68;;;;;;;;;;5064996;28;20021;-68
2022/12/09 05:34:30;;;;;;;11.23;10.63;;;;;;;;;;5053090;28;20024;-69
2022/12/09 05:36:55;;;;;;;10.65;10.15;;;;;;;;;;5058069;28;20388;-70
2022/12/09 05:39:20;;;;;;;9.70;9.25;;;;;;;;;;5058615;28;20027;-69
2022/12/09 05:41:46;;;;;;;10.50;10.00;;;;;;;;;;5063896;28;20017;-69
2022/12/09 05:44:11;;;;;;;11.05;10.45;;;;;;;;;;5054870;28;20017;-69
2022/12/09 05:46:37;;;;;;;10.23;9.73;;;;;;;;;;5058601;28;20059;-69
2022/12/09 05:49:02;;;;;;;10.43;9.93;;;;;;;;;;5063862;28;20134;-70
2022/12/09 05:51:28;;;;;;;10.10;9.60;;;;;;;;;;5067227;28;20158;-69
2022/12/09 05:53:54;;;;;;;10.20;9.70;;;;;;;;;;5060889;28;20029;-69
2022/12/09 05:56:20;;;;;;;10.38;9.88;;;;;;;;;;5064332;28;20024;-69
2022/12/09 05:58:46;;;;;;;10.25;9.75;;;;;;;;;;5064528;28;20025;-69
2022/12/09 06:01:11;;;;;;;11.82;11.15;;;;;;;;;;5052977;28;20027;-72
2022/12/09 06:03:38;;;;;;;10.68;10.15;;;;;;;;;;5048576;28;20101;-71
2022/12/09 06:06:11;;;;;;;10.30;9.80;;;;;;;;;;5059915;28;20499;-70
2022/12/09 06:08:36;;;;;;;10.27;9.77;;;;;;;;;;5066258;28;20469;-69
2022/12/09 06:11:02;;;;;;;10.30;9.80;;;;;;;;;;5054425;28;20032;-69
2022/12/09 06:13:28;;;;;;;10.43;9.93;;;;;;;;;;5066709;28;20040;-68
2022/12/09 06:15:53;;;;;;;10.45;9.95;;;;;;;;;;5049297;28;20401;-67
2022/12/09 06:18:18;;;;;;;10.30;9.80;;;;;;;;;;5055528;28;20533;-65
2022/12/09 06:20:44;;;;;;;10.52;10.02;;;;;;;;;;5060387;28;20020;-65
2022/12/09 06:23:09;;;;;;;10.43;9.93;;;;;;;;;;5056945;28;20094;-66
2022/12/09 06:25:34;;;;;;;10.98;10.38;;;;;;;;;;5055121;28;20025;-66
2022/12/09 06:28:00;;;;;;;11.30;10.70;;;;;;;;;;5059972;28;20108;-67
2022/12/09 06:30:25;;;;;;;10.35;9.85;;;;;;;;;;5059141;28;20021;-68
2022/12/09 06:32:50;;;;;;;10.32;9.82;;;;;;;;;;5057488;28;20032;-68
2022/12/09 06:35:16;;;;;;;10.18;9.68;;;;;;;;;;5063749;28;20046;-68
2022/12/09 06:37:41;;;;;;;9.68;9.20;;;;;;;;;;5062398;28;20066;-68
2022/12/09 06:40:07;;;;;;;10.02;9.52;;;;;;;;;;5058179;28;20121;-67
2022/12/09 06:42:32;;;;;;;9.93;9.43;;;;;;;;;;5058045;28;20029;-68
2022/12/09 06:44:58;;;;;;;9.90;9.40;;;;;;;;;;5056455;28;20128;-67
2022/12/09 06:47:23;;;;;;;9.50;9.10;;;;;;;;;;5066186;28;20097;-68
2022/12/09 06:49:49;;;;;;;9.93;9.43;;;;;;;;;;5054208;28;20032;-68
2022/12/09 06:52:14;;;;;;;10.05;9.55;;;;;;;;;;5058203;28;20079;-69
2022/12/09 06:54:40;;;;;;;10.00;9.50;;;;;;;;;;5050496;28;20455;-71
2022/12/09 06:57:06;;;;;;;10.73;10.23;;;;;;;;;;5051183;28;20114;-71
2022/12/09 06:59:31;;;;;;;10.15;9.65;;;;;;;;;;5053056;28;20032;-70
2022/12/09 07:01:56;;;;;;;10.05;9.55;;;;;;;;;;5050906;28;20025;-70
2022/12/09 07:04:22;;;;;;;9.77;9.27;;;;;;;;;;5052259;28;20048;-70
2022/12/09 07:06:47;;;;;;;9.50;9.10;;;;;;;;;;5057462;28;20489;-69
2022/12/09 07:09:19;;;;;;;9.80;9.30;;;;;;;;;;5054694;28;20418;-71
2022/12/09 07:11:45;;;;;;;10.25;9.75;;;;;;;;;;5049104;28;20025;-71
2022/12/09 07:14:11;;;;;;;10.27;9.77;;;;;;;;;;5055058;28;20024;-69
2022/12/09 07:16:37;;;;;;;9.50;9.10;;;;;;;;;;5057638;28;20016;-70
2022/12/09 07:19:02;;;;;;;9.63;9.20;;;;;;;;;;5057337;28;20032;-69
2022/12/09 07:21:28;;;;;;;10.07;9.57;;;;;;;;;;5054022;28;20498;-69
2022/12/09 07:23:53;;;;;;;10.20;9.70;;;;;;;;;;5052659;28;20438;-68
2022/12/09 07:26:19;;;;;;;9.93;9.43;;;;;;;;;;5050939;28;20025;-70
2022/12/09 07:28:46;;;;;;;10.23;9.73;;;;;;;;;;5051996;28;20029;-70
2022/12/09 07:31:17;;;;;;;10.50;10.00;;;;;;;;;;5053432;28;20013;-70
2022/12/09 07:33:42;;;;;;;11.05;10.45;;;;;;;;;;5046711;28;20513;-69
2022/12/09 07:36:08;;;;;;;11.40;10.80;;;;;;;;;;5049014;28;20103;-68
2022/12/09 07:38:33;;;;;;;11.05;10.45;;;;;;;;;;5048736;28;20017;-70
2022/12/09 07:41:03;;;;;;;10.23;9.73;;;;;;;;;;5051386;28;21191;-70
2022/12/09 07:43:28;;;;;;;10.65;10.15;;;;;;;;;;5046811;28;20381;-70
2022/12/09 07:45:54;;;;;;;10.20;9.70;;;;;;;;;;5050229;28;20042;-68
2022/12/09 07:48:19;;;;;;;10.38;9.88;;;;;;;;;;5050283;28;20055;-68
2022/12/09 07:50:44;;;;;;;10.65;10.15;;;;;;;;;;5052315;28;20021;-70
2022/12/09 07:53:09;;;;;;;9.90;9.40;;;;;;;;;;5053327;28;20017;-71
2022/12/09 07:55:35;;;;;;;10.02;9.52;;;;;;;;;;5052777;28;20494;-69
2022/12/09 07:58:00;;;;;;;9.30;8.90;;;;;;;;;;5052422;28;20032;-69
2022/12/09 08:00:25;;;;;;;10.00;9.50;;;;;;;;;;5045386;28;20017;-71
2022/12/09 08:02:51;;;;;;;11.02;10.43;;;;;;;;;;5046853;28;20029;-69
2022/12/09 08:05:16;;;;;;;10.82;10.27;;;;;;;;;;5042432;28;20396;-68
2022/12/09 08:07:41;;;;;;;9.65;9.25;;;;;;;;;;5044518;28;20035;-69
2022/12/09 08:10:07;;;;;;;10.57;10.07;;;;;;;;;;5051974;28;20025;-70
2022/12/09 08:12:32;;;;;;;9.70;9.30;;;;;;;;;;5047810;28;20076;-69
2022/12/09 08:14:57;;;;;;;9.95;9.45;;;;;;;;;;5051633;28;20472;-69
2022/12/09 08:17:23;;;;;;;10.38;9.88;;;;;;;;;;5045966;28;20029;-69
2022/12/09 08:19:49;;;;;;;10.88;10.35;;;;;;;;;;5047663;28;20025;-68
2022/12/09 08:22:14;;;;;;;10.05;9.55;;;;;;;;;;5054519;28;20017;-70
2022/12/09 08:24:40;;;;;;;9.60;9.20;;;;;;;;;;5055233;28;20027;-72
2022/12/09 08:27:05;;;;;;;10.02;9.52;;;;;;;;;;5054264;28;20028;-69
2022/12/09 08:29:30;;;;;;;9.95;9.45;;;;;;;;;;5054222;28;20025;-68
2022/12/09 08:31:56;;;;;;;9.93;9.43;;;;;;;;;;5048642;28;20035;-70
2022/12/09 08:34:21;;;;;;;10.40;9.90;;;;;;;;;;5050488;28;20032;-69
2022/12/09 08:36:46;;;;;;;9.95;9.45;;;;;;;;;;5050075;28;20032;-70
2022/12/09 08:39:12;;;;;;;9.00;8.60;;;;;;;;;;5046983;28;20405;-71
2022/12/09 08:41:37;;;;;;;10.10;9.60;;;;;;;;;;5050081;28;20024;-71
2022/12/09 08:44:10;;;;;;;9.90;9.45;;;;;;;;;;5047245;28;20082;-71
2022/12/09 08:46:36;;;;;;;10.50;10.00;;;;;;;;;;5050622;28;20021;-70
2022/12/09 08:49:02;;;;;;;10.00;9.60;;;;;;;;;;5055716;28;20016;-69
2022/12/09 08:51:28;;;;;;;10.70;10.20;;;;;;;;;;5056444;28;20021;-69
2022/12/09 08:53:54;;;;;;;11.18;10.68;;;;;;;;;;5054380;28;20033;-69
2022/12/09 08:56:19;;;;;;;10.65;10.15;;;;;;;;;;5053063;28;20025;-69
2022/12/09 08:58:47;;;;;;;11.98;11.38;;;;;;;;;;5053230;28;20074;-70
2022/12/09 09:01:19;;;;;;;11.07;10.57;;;;;;;;;;5052041;28;20169;-70
2022/12/09 09:03:45;;;;;;;10.68;10.18;;;;;;;;;;5049241;28;20030;-69
2022/12/09 09:06:11;;;;;;;10.52;10.02;;;;;;;;;;5043290;28;20548;-72
2022/12/09 09:08:37;;;;;;;11.50;11.00;;;;;;;;;;5050369;28;20017;-69
2022/12/09 09:11:09;;;;;;;11.25;10.75;;;;;;;;;;5049532;28;20017;-70
2022/12/09 09:13:34;;;;;;;10.80;10.30;;;;;;;;;;5054667;28;20045;-71
2022/12/09 09:15:59;;;;;;;10.65;10.15;;;;;;;;;;5054672;28;20384;-70
2022/12/09 09:18:25;;;;;;;10.65;10.15;;;;;;;;;;5049690;28;20021;-69
2022/12/09 09:20:52;;;;;;;11.00;10.50;;;;;;;;;;5050239;28;20020;-70
2022/12/09 09:23:17;;;;;;;10.52;10.02;;;;;;;;;;5048329;28;20372;-68
2022/12/09 09:25:43;;;;;;;10.77;10.27;;;;;;;;;;5052598;28;20037;-71
2022/12/09 09:28:09;;;;;;;11.52;11.02;;;;;;;;;;5049259;28;20071;-69
2022/12/09 09:30:35;;;;;;;11.40;10.88;;;;;;;;;;5049704;28;20375;-69
2022/12/09 09:33:00;;;;;;;11.02;10.52;;;;;;;;;;5058786;28;20055;-69
2022/12/09 09:35:25;;;;;;;11.30;10.80;;;;;;;;;;5053262;28;20480;-69
2022/12/09 09:37:53;;;;;;;11.70;11.20;;;;;;;;;;5054707;28;20041;-70
2022/12/09 09:40:19;;;;;;;11.93;11.35;;;;;;;;;;5051643;28;20102;-69
2022/12/09 09:42:47;;;;;;;12.02;11.43;;;;;;;;;;5051180;28;20044;-70
2022/12/09 09:45:15;;;;;;;12.05;11.45;;;;;;;;;;5047887;28;20021;-69
2022/12/09 09:47:42;;;;;;;11.00;10.50;;;;;;;;;;5053088;28;20024;-70
2022/12/09 09:50:26;;;;;;;11.70;11.10;;;;;;;;;;5053878;28;20053;-70
2022/12/09 09:52:52;;;;;;;11.60;11.02;;;;;;;;;;5050382;28;20518;-69
2022/12/09 09:55:22;;;;;;;11.18;10.68;;;;;;;;;;5049124;28;20031;-69
2022/12/09 09:58:04;;;;;;;10.75;10.25;;;;;;;;;;5053972;28;20023;-71
2022/12/09 10:00:33;;;;;;;10.98;10.48;;;;;;;;;;5053602;28;20048;-71
2022/12/09 10:03:04;;;;;;;10.80;10.30;;;;;;;;;;5051284;28;20029;-69
2022/12/09 10:05:30;;;;;;;10.25;9.75;;;;;;;;;;5055236;28;20008;-69
2022/12/09 10:08:04;;;;;;;11.85;11.25;;;;;;;;;;5055405;28;20375;-69
2022/12/09 10:10:47;;;;;;;12.10;11.50;;;;;;;;;;5055863;28;20021;-70
2022/12/09 10:13:31;;;;;;;10.33;9.83;;;;;;;;;;5051782;28;20045;-68
2022/12/09 10:16:04;;;;;;;11.48;10.88;;;;;;;;;;5053550;28;20020;-68
2022/12/09 10:18:45;;;;;;;11.60;11.00;;;;;;;;;;5052212;28;20074;-68
2022/12/09 10:21:15;;;;;;;10.30;9.80;;;;;;;;;;5053684;28;20017;-68
2022/12/09 10:23:41;;;;;;;11.25;10.73;;;;;;;;;;5057379;28;20029;-68
2022/12/09 10:26:10;;;;;;;11.35;10.75;;;;;;;;;;5052624;28;20158;-68
2022/12/09 10:28:38;;;;;;;11.20;10.65;;;;;;;;;;5054212;28;20017;-70
2022/12/09 10:31:04;;;;;;;11.20;10.65;;;;;;;;;;5055506;28;20384;-74
2022/12/09 10:33:38;;;;;;;10.63;10.13;;;;;;;;;;5055161;28;20035;-75
2022/12/09 10:36:06;;;;;;;11.57;10.98;;;;;;;;;;5055541;28;20036;-74
2022/12/09 10:38:34;;;;;;;11.02;10.52;;;;;;;;;;5055676;28;20025;-71
2022/12/09 10:41:04;;;;;;;11.50;10.90;;;;;;;;;;5060773;28;20017;-75
2022/12/09 10:43:35;;;;;;;11.13;10.60;;;;;;;;;;5051826;28;20016;-71
2022/12/09 10:46:11;;;;;;;10.75;10.25;;;;;;;;;;5051342;28;20016;-72
2022/12/09 10:48:36;;;;;;;10.55;10.05;;;;;;;;;;5052962;28;20104;-71
2022/12/09 10:51:09;;;;;;;10.20;9.70;;;;;;;;;;5051667;28;20162;-71
2022/12/09 10:53:35;;;;;;;10.27;9.77;;;;;;;;;;5051034;28;20115;-71
2022/12/09 10:56:01;;;;;;;10.90;10.40;;;;;;;;;;5048053;28;20128;-70
2022/12/09 10:58:27;;;;;;;10.77;10.27;;;;;;;;;;5056268;28;20387;-72
2022/12/09 11:01:08;;;;;;;10.40;9.90;;;;;;;;;;5052314;28;20090;-72
2022/12/09 11:03:33;;;;;;;10.55;10.05;;;;;;;;;;5051056;28;20024;-71
2022/12/09 11:06:03;;;;;;;11.27;10.70;;;;;;;;;;5049879;28;20029;-67
2022/12/09 11:08:29;;;;;;;10.80;10.30;;;;;;;;;;5049715;28;20933;-67
2022/12/09 11:10:54;;;;;;;11.38;10.77;;;;;;;;;;5058338;28;20135;-69
2022/12/09 11:13:21;;;;;;;10.98;10.48;;;;;;;;;;5063240;28;20397;-70
2022/12/09 11:15:52;;;;;;;10.82;10.32;;;;;;;;;;5049663;28;20036;-69
2022/12/09 11:18:23;;;;;;;10.60;10.10;;;;;;;;;;5063116;28;20089;-69
2022/12/09 11:21:01;;;;;;;11.40;10.80;;;;;;;;;;5049577;28;20067;-70
2022/12/09 11:23:26;;;;;;;11.73;11.13;;;;;;;;;;5059465;28;20017;-69
2022/12/09 11:25:52;;;;;;;10.50;10.00;;;;;;;;;;5060809;28;20476;-71
2022/12/09 11:28:17;;;;;;;10.20;9.70;;;;;;;;;;5055450;28;20012;-69
2022/12/09 11:30:49;;;;;;;12.23;11.57;;;;;;;;;;5044572;28;20025;-69
2022/12/09 11:33:14;;;;;;;10.65;10.15;;;;;;;;;;5052551;28;20104;-75
2022/12/09 11:35:42;;;;;;;12.13;11.52;;;;;;;;;;5051469;28;20142;-71
2022/12/09 11:38:23;;;;;;;11.73;11.13;;;;;;;;;;5055822;28;20108;-80
2022/12/09 11:41:06;;;;;;;12.40;11.73;;;;;;;;;;5051112;28;20048;-73
2022/12/09 11:43:33;;;;;;;10.50;10.00;;;;;;;;;;5051059;28;20025;-76
2022/12/09 11:45:58;;;;;;;11.15;10.65;;;;;;;;;;5043066;28;20029;-66
2022/12/09 11:48:27;;;;;;;10.90;10.40;;;;;;;;;;5053261;28;20159;-70
2022/12/09 11:50:54;;;;;;;10.82;10.32;;;;;;;;;;5051711;28;20324;-67
2022/12/09 11:53:19;;;;;;;11.75;11.15;;;;;;;;;;5054376;28;20033;-68
2022/12/09 11:55:53;;;;;;;10.77;10.27;;;;;;;;;;5054397;28;20017;-71
2022/12/09 11:58:34;;;;;;;10.70;10.20;;;;;;;;;;5046268;28;20021;-69
2022/12/09 12:01:02;;;;;;;10.95;10.45;;;;;;;;;;5051700;28;20489;-67
2022/12/09 12:03:35;;;;;;;10.52;10.02;;;;;;;;;;5052193;28;20075;-68
2022/12/09 12:06:02;;;;;;;11.57;10.98;;;;;;;;;;5048535;28;20511;-69
2022/12/09 12:08:28;;;;;;;11.40;10.80;;;;;;;;;;5049479;28;20032;-68
2022/12/09 12:10:56;;;;;;;12.98;12.27;;;;;;;;;;5049535;28;20017;-67
2022/12/09 12:13:21;;;;;;;12.57;11.88;;;;;;;;;;5055728;28;20056;-66
2022/12/09 12:16:02;;;;;;;10.75;10.25;;;;;;;;;;5052499;28;20025;-68
2022/12/09 12:18:29;;;;;;;11.60;11.00;;;;;;;;;;5048742;28;20377;-67
2022/12/09 12:21:03;;;;;;;11.32;10.73;;;;;;;;;;5052905;28;20013;-68
2022/12/09 12:23:47;;;;;;;11.80;11.20;;;;;;;;;;5056136;28;20095;-68
2022/12/09 12:26:21;;;;;;;11.10;10.53;;;;;;;;;;5051407;28;20237;-67
2022/12/09 12:28:46;;;;;;;11.88;11.27;;;;;;;;;;5049114;28;20344;-67
2022/12/09 12:31:17;;;;;;;11.43;10.82;;;;;;;;;;5044619;28;20048;-68
2022/12/09 12:33:54;;;;;;;12.98;12.27;;;;;;;;;;5057436;28;20025;-68
2022/12/09 12:36:19;;;;;;;11.60;11.00;;;;;;;;;;5050218;28;20035;-69
2022/12/09 12:39:03;;;;;;;10.65;10.15;;;;;;;;;;5048661;28;20017;-69
2022/12/09 12:41:47;;;;;;;12.40;11.75;;;;;;;;;;5052364;28;20373;-69
2022/12/09 12:47:04;;;;;;;10.90;10.40;;;;;;;;;;5053979;28;20109;-69
2022/12/09 12:49:37;;;;;;;11.77;11.18;;;;;;;;;;5057357;28;20047;-69
2022/12/09 12:52:02;;;;;;;10.20;9.70;;;;;;;;;;5054833;28;20481;-67
2022/12/09 12:54:36;;;;;;;10.52;10.02;;;;;;;;;;5057046;28;20075;-67
2022/12/09 12:57:11;;;;;;;11.93;11.32;;;;;;;;;;5045272;28;20112;-68
2022/12/09 12:59:42;;;;;;;11.38;10.77;;;;;;;;;;5049368;28;20422;-66
2022/12/09 13:02:22;;;;;;;10.60;10.10;;;;;;;;;;5046725;28;20082;-70
2022/12/09 13:04:53;;;;;;;11.07;10.57;;;;;;;;;;5055384;28;20387;-69
2022/12/09 13:07:36;;;;;;;10.93;10.43;;;;;;;;;;5059385;28;20029;-68
2022/12/09 13:10:22;;;;;;;11.55;10.95;;;;;;;;;;5051796;28;20124;-69
2022/12/09 13:12:52;;;;;;;10.85;10.35;;;;;;;;;;5049055;28;20056;-70
2022/12/09 13:15:20;;;;;;;10.45;9.95;;;;;;;;;;5054824;28;20028;-68
2022/12/09 13:17:46;;;;;;;11.20;10.68;;;;;;;;;;5054549;28;20021;-70
2022/12/09 13:20:15;;;;;;;10.45;9.95;;;;;;;;;;5051611;28;20040;-70
2022/12/09 13:22:52;;;;;;;11.43;10.82;;;;;;;;;;5057496;28;20016;-69
2022/12/09 13:25:26;;;;;;;10.73;10.23;;;;;;;;;;5054088;28;20021;-67
2022/12/09 13:27:52;;;;;;;;;;;;;;;;;;5052115;28;20435;-66
2022/12/09 13:30:19;;;;;;;10.65;10.15;;;;;;;;;;5054650;28;19908;-67
2022/12/09 13:32:53;;;;;;;10.88;10.38;;;;;;;;;;5055733;28;20052;-69
2022/12/09 13:35:21;;;;;;;11.57;10.98;;;;;;;;;;5053573;28;20092;-68
2022/12/09 13:37:48;;;;;;;11.38;10.77;;;;;;;;;;5055153;28;20512;-69
2022/12/09 13:40:20;;;;;;;11.25;10.65;;;;;;;;;;5055399;28;20070;-69
2022/12/09 13:42:52;;;;;;;11.13;10.63;;;;;;;;;;5052814;28;20013;-68
2022/12/09 13:45:17;;;;;;;11.32;10.73;;;;;;;;;;5049727;28;20024;-67
2022/12/09 13:47:42;;;;;;;10.77;10.27;;;;;;;;;;5058488;28;20387;-70
2022/12/09 13:50:23;;;;;;;11.40;10.80;;;;;;;;;;5055380;28;20024;-69
2022/12/09 13:52:50;;;;;;;11.25;10.68;;;;;;;;;;5053880;28;20489;-70
2022/12/09 13:55:27;;;;;;;10.85;10.35;;;;;;;;;;5055481;28;20067;-70
2022/12/09 13:57:58;;;;;;;11.35;10.75;;;;;;;;;;5048156;28;20029;-69
2022/12/09 14:00:24;;;;;;;12.77;12.07;;;;;;;;;;5050942;28;20031;-70
2022/12/09 14:02:52;;;;;;;10.85;10.35;;;;;;;;;;5053084;28;20095;-70
2022/12/09 14:05:19;;;;;;;11.48;10.88;;;;;;;;;;5054298;28;20499;-72
2022/12/09 14:07:53;;;;;;;11.63;11.02;;;;;;;;;;5053572;28;20032;-71
2022/12/09 14:10:38;;;;;;;10.02;9.52;;;;;;;;;;5053566;28;20503;-72
2022/12/09 14:13:03;;;;;;;10.43;9.93;;;;;;;;;;5051276;28;20072;-67
2022/12/09 14:15:28;;;;;;;10.57;10.07;;;;;;;;;;5052439;28;20060;-69
2022/12/09 14:17:59;;;;;;;11.10;10.55;;;;;;;;;;5053525;28;20100;-68
2022/12/09 14:20:28;;;;;;;12.40;11.70;;;;;;;;;;5045953;28;20020;-68
2022/12/09 14:23:06;;;;;;;10.65;10.15;;;;;;;;;;5048626;28;20017;-67
2022/12/09 14:25:32;;;;;;;12.23;11.55;;;;;;;;;;5052853;28;20368;-69
2022/12/09 14:28:23;;;;;;;11.30;10.70;;;;;;;;;;5052659;28;20025;-68
2022/12/09 14:30:48;;;;;;;11.98;11.35;;;;;;;;;;5041323;28;20029;-69
2022/12/09 14:33:29;;;;;;;11.80;11.20;;;;;;;;;;5050683;28;20029;-68